SCCI 191300Z 03009KT 9999 SCT025 OVC030 03/M02 Q1010 NOSIG